Disclaimer

Please do not use the information listed here in-flight or in-navigation, as they are not provided to us by the airports but are provided by volunteers, so they might be outdated.

Search


Regions


Airport information page

Radio informations:
BRAZZAVILLE TWR - 121.1 MHz
BRAZZAVILLE INFO - 5493 MHz
BRAZZAVILLE CON - 121.1 MHz

Airport informations:
Latitude: 04° 15' 06.12" S
Longitude: 015° 15' 10.91" E
Elevation: 1048 feet - 319 meters
Operating hours: 24 hour operations
Operating agency: Military-civil joint use airport
Timezone: UTC+1
Fuel: Jet A1, without icing nhibitor.

100/130 MIL Spec, low lead, aviation gasoline (BLUE)

Runway information:
05/23 - 10827 x 148 feet< - >3300 x 45 meters

Recent METARs:
FCBB 131819Z 36002KT 9999 TS FEW030CB 30/23 Q1008 NOSIG
FCBB 131819Z 36002KT 9999 TS FEW030CB 30/23 Q1008 NOSIG
FCBB 131900Z VRB02KT 9999 TS FEW030CB 29/23 Q1008 NOSIG

Airport on the map: